sensor_id;sensor_type;location;lat;lon;timestamp;temperature;humidity
21238;DHT22;10777;50.828;3.264;2022-07-29T00:01:49;20.50;99.90
21238;DHT22;10777;50.828;3.264;2022-07-29T00:04:14;20.80;99.90
21238;DHT22;10777;50.828;3.264;2022-07-29T00:06:40;21.00;99.90
21238;DHT22;10777;50.828;3.264;2022-07-29T00:09:06;20.60;99.90
21238;DHT22;10777;50.828;3.264;2022-07-29T00:11:32;20.70;99.90
21238;DHT22;10777;50.828;3.264;2022-07-29T00:13:58;20.60;99.90
21238;DHT22;10777;50.828;3.264;2022-07-29T00:16:23;20.40;99.90
21238;DHT22;10777;50.828;3.264;2022-07-29T00:18:49;20.30;99.90
21238;DHT22;10777;50.828;3.264;2022-07-29T00:21:15;20.30;99.90
21238;DHT22;10777;50.828;3.264;2022-07-29T00:23:40;20.30;99.90
21238;DHT22;10777;50.828;3.264;2022-07-29T00:26:06;20.30;99.90
21238;DHT22;10777;50.828;3.264;2022-07-29T00:28:32;20.20;99.90
21238;DHT22;10777;50.828;3.264;2022-07-29T00:30:57;20.40;99.90
21238;DHT22;10777;50.828;3.264;2022-07-29T00:33:23;20.20;99.90
21238;DHT22;10777;50.828;3.264;2022-07-29T00:35:49;20.20;99.90
21238;DHT22;10777;50.828;3.264;2022-07-29T00:38:17;20.10;99.90
21238;DHT22;10777;50.828;3.264;2022-07-29T00:40:43;20.30;99.90
21238;DHT22;10777;50.828;3.264;2022-07-29T00:43:10;20.20;99.90
21238;DHT22;10777;50.828;3.264;2022-07-29T00:45:36;20.30;99.90
21238;DHT22;10777;50.828;3.264;2022-07-29T00:48:02;20.40;99.90
21238;DHT22;10777;50.828;3.264;2022-07-29T00:50:30;20.20;99.90
21238;DHT22;10777;50.828;3.264;2022-07-29T00:52:56;20.00;99.90
21238;DHT22;10777;50.828;3.264;2022-07-29T00:55:22;20.00;99.90
21238;DHT22;10777;50.828;3.264;2022-07-29T00:57:48;19.90;99.90
21238;DHT22;10777;50.828;3.264;2022-07-29T01:00:18;20.10;99.90
21238;DHT22;10777;50.828;3.264;2022-07-29T01:02:45;20.10;99.90
21238;DHT22;10777;50.828;3.264;2022-07-29T01:05:14;20.20;99.90
21238;DHT22;10777;50.828;3.264;2022-07-29T01:07:41;20.10;99.90
21238;DHT22;10777;50.828;3.264;2022-07-29T01:10:09;19.90;99.90
21238;DHT22;10777;50.828;3.264;2022-07-29T01:12:37;20.00;99.90
21238;DHT22;10777;50.828;3.264;2022-07-29T01:15:05;19.90;99.90
21238;DHT22;10777;50.828;3.264;2022-07-29T01:17:46;19.80;99.90
21238;DHT22;10777;50.828;3.264;2022-07-29T01:20:25;20.10;99.90
21238;DHT22;10777;50.828;3.264;2022-07-29T01:23:10;20.00;99.90
21238;DHT22;10777;50.828;3.264;2022-07-29T01:29:08;19.60;99.90
21238;DHT22;10777;50.828;3.264;2022-07-29T01:31:45;19.70;99.90
21238;DHT22;10777;50.828;3.264;2022-07-29T01:34:21;19.40;99.90
21238;DHT22;10777;50.828;3.264;2022-07-29T01:36:57;19.30;99.90
21238;DHT22;10777;50.828;3.264;2022-07-29T01:39:30;19.50;99.90
21238;DHT22;10777;50.828;3.264;2022-07-29T01:42:06;19.50;99.90
21238;DHT22;10777;50.828;3.264;2022-07-29T01:44:39;19.50;99.90
21238;DHT22;10777;50.828;3.264;2022-07-29T01:47:13;19.60;99.90
21238;DHT22;10777;50.828;3.264;2022-07-29T01:49:45;19.60;99.90
21238;DHT22;10777;50.828;3.264;2022-07-29T01:52:20;19.40;99.90
21238;DHT22;10777;50.828;3.264;2022-07-29T01:54:53;19.30;99.90
21238;DHT22;10777;50.828;3.264;2022-07-29T01:57:23;19.50;99.90
21238;DHT22;10777;50.828;3.264;2022-07-29T01:59:51;19.20;99.90
21238;DHT22;10777;50.828;3.264;2022-07-29T02:02:18;19.20;99.90
21238;DHT22;10777;50.828;3.264;2022-07-29T02:04:47;19.10;99.90
21238;DHT22;10777;50.828;3.264;2022-07-29T02:07:18;19.10;99.90
21238;DHT22;10777;50.828;3.264;2022-07-29T02:09:47;19.20;99.90
21238;DHT22;10777;50.828;3.264;2022-07-29T02:12:14;19.30;99.90
21238;DHT22;10777;50.828;3.264;2022-07-29T02:14:44;19.30;99.90
21238;DHT22;10777;50.828;3.264;2022-07-29T02:17:12;19.20;99.90
21238;DHT22;10777;50.828;3.264;2022-07-29T02:19:39;19.20;99.90
21238;DHT22;10777;50.828;3.264;2022-07-29T02:22:06;19.00;99.90
21238;DHT22;10777;50.828;3.264;2022-07-29T02:24:35;19.20;99.90
21238;DHT22;10777;50.828;3.264;2022-07-29T02:27:03;19.20;99.90
21238;DHT22;10777;50.828;3.264;2022-07-29T02:29:30;19.20;99.90
21238;DHT22;10777;50.828;3.264;2022-07-29T02:31:59;19.20;99.90
21238;DHT22;10777;50.828;3.264;2022-07-29T02:34:27;19.10;99.90
21238;DHT22;10777;50.828;3.264;2022-07-29T02:36:54;19.20;99.90
21238;DHT22;10777;50.828;3.264;2022-07-29T02:39:21;19.20;99.90
21238;DHT22;10777;50.828;3.264;2022-07-29T02:41:51;19.40;99.90
21238;DHT22;10777;50.828;3.264;2022-07-29T02:44:21;19.30;99.90
21238;DHT22;10777;50.828;3.264;2022-07-29T02:47:10;19.40;99.90
21238;DHT22;10777;50.828;3.264;2022-07-29T02:49:43;19.50;99.90
21238;DHT22;10777;50.828;3.264;2022-07-29T02:52:18;19.60;99.90
21238;DHT22;10777;50.828;3.264;2022-07-29T02:54:51;19.40;99.90
21238;DHT22;10777;50.828;3.264;2022-07-29T02:57:22;19.50;99.90
21238;DHT22;10777;50.828;3.264;2022-07-29T02:59:52;19.50;99.90
21238;DHT22;10777;50.828;3.264;2022-07-29T03:02:20;19.50;99.90
21238;DHT22;10777;50.828;3.264;2022-07-29T03:04:47;19.30;99.90
21238;DHT22;10777;50.828;3.264;2022-07-29T03:07:15;19.40;99.90
21238;DHT22;10777;50.828;3.264;2022-07-29T03:09:44;19.20;99.90
21238;DHT22;10777;50.828;3.264;2022-07-29T03:12:11;19.60;99.90
21238;DHT22;10777;50.828;3.264;2022-07-29T03:14:37;19.20;99.90
21238;DHT22;10777;50.828;3.264;2022-07-29T03:17:03;19.20;99.90
21238;DHT22;10777;50.828;3.264;2022-07-29T03:19:29;19.50;99.90
21238;DHT22;10777;50.828;3.264;2022-07-29T03:21:57;19.40;99.90
21238;DHT22;10777;50.828;3.264;2022-07-29T03:24:26;18.90;99.90
21238;DHT22;10777;50.828;3.264;2022-07-29T03:26:52;18.70;99.90
21238;DHT22;10777;50.828;3.264;2022-07-29T03:29:19;18.80;99.90
21238;DHT22;10777;50.828;3.264;2022-07-29T03:31:45;18.90;99.90
21238;DHT22;10777;50.828;3.264;2022-07-29T03:34:11;18.70;99.90
21238;DHT22;10777;50.828;3.264;2022-07-29T03:36:36;18.90;99.90
21238;DHT22;10777;50.828;3.264;2022-07-29T03:39:03;19.00;99.90
21238;DHT22;10777;50.828;3.264;2022-07-29T03:41:30;19.20;99.90
21238;DHT22;10777;50.828;3.264;2022-07-29T03:43:58;19.30;99.90
21238;DHT22;10777;50.828;3.264;2022-07-29T03:46:26;19.30;99.90
21238;DHT22;10777;50.828;3.264;2022-07-29T03:49:01;19.00;99.90
21238;DHT22;10777;50.828;3.264;2022-07-29T03:51:27;19.10;99.90
21238;DHT22;10777;50.828;3.264;2022-07-29T03:53:53;19.00;99.90
21238;DHT22;10777;50.828;3.264;2022-07-29T03:56:21;19.10;99.90
21238;DHT22;10777;50.828;3.264;2022-07-29T03:58:50;19.10;99.90
21238;DHT22;10777;50.828;3.264;2022-07-29T04:01:16;18.90;99.90
21238;DHT22;10777;50.828;3.264;2022-07-29T04:03:43;18.90;99.90
21238;DHT22;10777;50.828;3.264;2022-07-29T04:06:11;18.70;99.90
21238;DHT22;10777;50.828;3.264;2022-07-29T04:08:37;18.70;99.90
21238;DHT22;10777;50.828;3.264;2022-07-29T04:11:04;18.90;99.90
21238;DHT22;10777;50.828;3.264;2022-07-29T04:13:31;18.90;99.90
21238;DHT22;10777;50.828;3.264;2022-07-29T04:15:57;19.10;99.90
21238;DHT22;10777;50.828;3.264;2022-07-29T04:18:23;19.10;99.90
21238;DHT22;10777;50.828;3.264;2022-07-29T04:20:49;19.10;99.90
21238;DHT22;10777;50.828;3.264;2022-07-29T04:23:14;19.00;99.90
21238;DHT22;10777;50.828;3.264;2022-07-29T04:25:41;19.20;99.90
21238;DHT22;10777;50.828;3.264;2022-07-29T04:28:07;19.30;99.90
21238;DHT22;10777;50.828;3.264;2022-07-29T04:30:34;19.20;99.90
21238;DHT22;10777;50.828;3.264;2022-07-29T04:33:02;19.00;99.90
21238;DHT22;10777;50.828;3.264;2022-07-29T04:35:29;18.90;99.90
21238;DHT22;10777;50.828;3.264;2022-07-29T04:37:55;18.80;99.90
21238;DHT22;10777;50.828;3.264;2022-07-29T04:40:21;18.70;99.90
21238;DHT22;10777;50.828;3.264;2022-07-29T04:42:47;18.70;99.90
21238;DHT22;10777;50.828;3.264;2022-07-29T04:45:12;18.90;99.90
21238;DHT22;10777;50.828;3.264;2022-07-29T04:47:38;19.10;99.90
21238;DHT22;10777;50.828;3.264;2022-07-29T04:50:04;19.00;99.90
21238;DHT22;10777;50.828;3.264;2022-07-29T04:52:32;19.00;99.90
21238;DHT22;10777;50.828;3.264;2022-07-29T04:54:58;19.00;99.90
21238;DHT22;10777;50.828;3.264;2022-07-29T04:57:23;19.20;99.90
21238;DHT22;10777;50.828;3.264;2022-07-29T04:59:49;19.20;99.90
21238;DHT22;10777;50.828;3.264;2022-07-29T05:02:15;19.10;99.90
21238;DHT22;10777;50.828;3.264;2022-07-29T05:04:40;18.80;99.90
21238;DHT22;10777;50.828;3.264;2022-07-29T05:07:06;18.90;99.90
21238;DHT22;10777;50.828;3.264;2022-07-29T05:09:32;19.00;99.90
21238;DHT22;10777;50.828;3.264;2022-07-29T05:11:57;19.10;99.90
21238;DHT22;10777;50.828;3.264;2022-07-29T05:14:23;19.10;99.90
21238;DHT22;10777;50.828;3.264;2022-07-29T05:16:49;19.30;99.90
21238;DHT22;10777;50.828;3.264;2022-07-29T05:19:17;19.30;99.90
21238;DHT22;10777;50.828;3.264;2022-07-29T05:21:44;19.20;99.90
21238;DHT22;10777;50.828;3.264;2022-07-29T05:24:09;19.10;99.90
21238;DHT22;10777;50.828;3.264;2022-07-29T05:26:35;19.60;99.90
21238;DHT22;10777;50.828;3.264;2022-07-29T05:29:01;19.80;99.90
21238;DHT22;10777;50.828;3.264;2022-07-29T05:31:27;19.70;99.90
21238;DHT22;10777;50.828;3.264;2022-07-29T05:33:52;19.50;99.90
21238;DHT22;10777;50.828;3.264;2022-07-29T05:36:18;19.50;99.90
21238;DHT22;10777;50.828;3.264;2022-07-29T05:38:44;19.70;99.90
21238;DHT22;10777;50.828;3.264;2022-07-29T05:41:10;19.70;99.90
21238;DHT22;10777;50.828;3.264;2022-07-29T05:43:36;19.60;99.90
21238;DHT22;10777;50.828;3.264;2022-07-29T05:46:01;19.30;99.90
21238;DHT22;10777;50.828;3.264;2022-07-29T05:48:27;19.60;99.90
21238;DHT22;10777;50.828;3.264;2022-07-29T05:50:53;19.60;99.90
21238;DHT22;10777;50.828;3.264;2022-07-29T05:53:20;19.80;99.90
21238;DHT22;10777;50.828;3.264;2022-07-29T05:55:46;20.10;99.90
21238;DHT22;10777;50.828;3.264;2022-07-29T05:58:15;20.10;99.90
21238;DHT22;10777;50.828;3.264;2022-07-29T06:00:41;20.20;99.90
21238;DHT22;10777;50.828;3.264;2022-07-29T06:03:07;20.40;99.90
21238;DHT22;10777;50.828;3.264;2022-07-29T06:05:32;20.40;99.90
21238;DHT22;10777;50.828;3.264;2022-07-29T06:07:58;20.40;99.90
21238;DHT22;10777;50.828;3.264;2022-07-29T06:10:24;20.40;99.90
21238;DHT22;10777;50.828;3.264;2022-07-29T06:12:50;20.50;99.90
21238;DHT22;10777;50.828;3.264;2022-07-29T06:15:19;20.50;99.90
21238;DHT22;10777;50.828;3.264;2022-07-29T06:17:58;20.80;99.90
21238;DHT22;10777;50.828;3.264;2022-07-29T06:20:25;19.80;99.90
21238;DHT22;10777;50.828;3.264;2022-07-29T06:22:52;20.80;99.90
21238;DHT22;10777;50.828;3.264;2022-07-29T06:25:17;21.10;99.90
21238;DHT22;10777;50.828;3.264;2022-07-29T06:27:43;21.30;99.90
21238;DHT22;10777;50.828;3.264;2022-07-29T06:30:09;21.20;99.90
21238;DHT22;10777;50.828;3.264;2022-07-29T06:32:35;21.30;99.90
21238;DHT22;10777;50.828;3.264;2022-07-29T06:35:01;21.60;99.90
21238;DHT22;10777;50.828;3.264;2022-07-29T06:37:27;21.60;99.90
21238;DHT22;10777;50.828;3.264;2022-07-29T06:39:52;21.70;99.90
21238;DHT22;10777;50.828;3.264;2022-07-29T06:42:42;21.90;99.90
21238;DHT22;10777;50.828;3.264;2022-07-29T06:45:09;21.80;99.90
21238;DHT22;10777;50.828;3.264;2022-07-29T06:47:34;21.70;99.90
21238;DHT22;10777;50.828;3.264;2022-07-29T06:50:00;22.00;99.90
21238;DHT22;10777;50.828;3.264;2022-07-29T06:52:26;22.10;99.90
21238;DHT22;10777;50.828;3.264;2022-07-29T06:54:51;22.20;99.90
21238;DHT22;10777;50.828;3.264;2022-07-29T06:57:17;22.10;99.90
21238;DHT22;10777;50.828;3.264;2022-07-29T06:59:43;22.30;99.90
21238;DHT22;10777;50.828;3.264;2022-07-29T07:02:08;22.60;99.90
21238;DHT22;10777;50.828;3.264;2022-07-29T07:04:34;22.70;99.90
21238;DHT22;10777;50.828;3.264;2022-07-29T07:07:00;22.40;99.90
21238;DHT22;10777;50.828;3.264;2022-07-29T07:09:26;22.40;99.90
21238;DHT22;10777;50.828;3.264;2022-07-29T07:11:51;22.40;99.90
21238;DHT22;10777;50.828;3.264;2022-07-29T07:14:17;22.20;99.90
21238;DHT22;10777;50.828;3.264;2022-07-29T07:16:43;22.40;99.90
21238;DHT22;10777;50.828;3.264;2022-07-29T07:19:08;22.50;99.90
21238;DHT22;10777;50.828;3.264;2022-07-29T07:21:34;22.80;99.90
21238;DHT22;10777;50.828;3.264;2022-07-29T07:24:00;23.00;99.90
21238;DHT22;10777;50.828;3.264;2022-07-29T07:26:27;23.00;99.90
21238;DHT22;10777;50.828;3.264;2022-07-29T07:28:52;22.90;99.90
21238;DHT22;10777;50.828;3.264;2022-07-29T07:31:18;22.50;99.90
21238;DHT22;10777;50.828;3.264;2022-07-29T07:33:44;22.60;99.90
21238;DHT22;10777;50.828;3.264;2022-07-29T07:36:10;22.70;99.90
21238;DHT22;10777;50.828;3.264;2022-07-29T07:38:36;22.90;99.90
21238;DHT22;10777;50.828;3.264;2022-07-29T07:41:01;23.10;99.90
21238;DHT22;10777;50.828;3.264;2022-07-29T07:43:27;23.40;99.90
21238;DHT22;10777;50.828;3.264;2022-07-29T07:45:54;22.90;99.90
21238;DHT22;10777;50.828;3.264;2022-07-29T07:48:20;23.70;99.90
21238;DHT22;10777;50.828;3.264;2022-07-29T07:50:45;23.70;99.90
21238;DHT22;10777;50.828;3.264;2022-07-29T07:53:11;23.50;99.90
21238;DHT22;10777;50.828;3.264;2022-07-29T07:55:44;23.60;99.90
21238;DHT22;10777;50.828;3.264;2022-07-29T07:58:10;23.50;99.90
21238;DHT22;10777;50.828;3.264;2022-07-29T08:00:36;23.50;99.90
21238;DHT22;10777;50.828;3.264;2022-07-29T08:03:02;23.70;99.90
21238;DHT22;10777;50.828;3.264;2022-07-29T08:05:28;23.90;99.90
21238;DHT22;10777;50.828;3.264;2022-07-29T08:07:54;24.10;99.90
21238;DHT22;10777;50.828;3.264;2022-07-29T08:10:20;24.10;99.90
21238;DHT22;10777;50.828;3.264;2022-07-29T08:13:07;24.10;99.90
21238;DHT22;10777;50.828;3.264;2022-07-29T08:15:33;24.10;99.90
21238;DHT22;10777;50.828;3.264;2022-07-29T08:17:59;24.00;99.90
21238;DHT22;10777;50.828;3.264;2022-07-29T08:20:25;24.20;99.90
21238;DHT22;10777;50.828;3.264;2022-07-29T08:22:51;24.30;99.90
21238;DHT22;10777;50.828;3.264;2022-07-29T08:25:18;24.50;99.90
21238;DHT22;10777;50.828;3.264;2022-07-29T08:27:46;24.00;99.90
21238;DHT22;10777;50.828;3.264;2022-07-29T08:30:12;24.20;99.90
21238;DHT22;10777;50.828;3.264;2022-07-29T08:32:38;24.20;99.90
21238;DHT22;10777;50.828;3.264;2022-07-29T08:35:04;24.40;99.90
21238;DHT22;10777;50.828;3.264;2022-07-29T08:37:30;24.40;99.90
21238;DHT22;10777;50.828;3.264;2022-07-29T08:39:56;24.60;99.90
21238;DHT22;10777;50.828;3.264;2022-07-29T08:42:22;24.50;99.90
21238;DHT22;10777;50.828;3.264;2022-07-29T08:44:48;24.50;99.90
21238;DHT22;10777;50.828;3.264;2022-07-29T08:47:16;24.70;99.90
21238;DHT22;10777;50.828;3.264;2022-07-29T08:49:43;24.70;99.90
21238;DHT22;10777;50.828;3.264;2022-07-29T08:52:11;25.00;99.90
21238;DHT22;10777;50.828;3.264;2022-07-29T08:54:39;24.80;99.90
21238;DHT22;10777;50.828;3.264;2022-07-29T08:57:05;24.70;99.90
21238;DHT22;10777;50.828;3.264;2022-07-29T08:59:33;24.90;99.90
21238;DHT22;10777;50.828;3.264;2022-07-29T09:02:00;24.80;99.90
21238;DHT22;10777;50.828;3.264;2022-07-29T09:04:30;24.90;99.90
21238;DHT22;10777;50.828;3.264;2022-07-29T09:07:01;25.10;99.90
21238;DHT22;10777;50.828;3.264;2022-07-29T09:09:28;25.20;99.90
21238;DHT22;10777;50.828;3.264;2022-07-29T09:11:54;25.10;99.90
21238;DHT22;10777;50.828;3.264;2022-07-29T09:14:20;25.20;99.90
21238;DHT22;10777;50.828;3.264;2022-07-29T09:16:49;25.20;99.90
21238;DHT22;10777;50.828;3.264;2022-07-29T09:19:33;25.70;99.90
21238;DHT22;10777;50.828;3.264;2022-07-29T09:22:02;25.90;99.90
21238;DHT22;10777;50.828;3.264;2022-07-29T09:24:48;25.90;99.90
21238;DHT22;10777;50.828;3.264;2022-07-29T09:27:20;26.10;99.90
21238;DHT22;10777;50.828;3.264;2022-07-29T09:29:54;26.00;99.90
21238;DHT22;10777;50.828;3.264;2022-07-29T09:32:20;25.80;99.90
21238;DHT22;10777;50.828;3.264;2022-07-29T09:34:46;25.50;99.90
21238;DHT22;10777;50.828;3.264;2022-07-29T09:37:26;25.50;99.90
21238;DHT22;10777;50.828;3.264;2022-07-29T09:39:52;25.40;99.90
21238;DHT22;10777;50.828;3.264;2022-07-29T09:42:28;25.50;99.90
21238;DHT22;10777;50.828;3.264;2022-07-29T09:44:54;25.50;99.90
21238;DHT22;10777;50.828;3.264;2022-07-29T09:47:21;25.30;99.90
21238;DHT22;10777;50.828;3.264;2022-07-29T09:49:55;25.30;99.90
21238;DHT22;10777;50.828;3.264;2022-07-29T09:52:24;25.40;99.90
21238;DHT22;10777;50.828;3.264;2022-07-29T09:54:50;25.20;99.90
21238;DHT22;10777;50.828;3.264;2022-07-29T09:57:31;25.20;99.90
21238;DHT22;10777;50.828;3.264;2022-07-29T10:00:00;25.30;99.90
21238;DHT22;10777;50.828;3.264;2022-07-29T10:02:29;25.50;99.90
21238;DHT22;10777;50.828;3.264;2022-07-29T10:05:02;25.60;99.90
21238;DHT22;10777;50.828;3.264;2022-07-29T10:07:50;25.70;99.90
21238;DHT22;10777;50.828;3.264;2022-07-29T10:10:22;25.90;99.90
21238;DHT22;10777;50.828;3.264;2022-07-29T10:12:51;26.00;99.90
21238;DHT22;10777;50.828;3.264;2022-07-29T10:15:17;25.70;99.90
21238;DHT22;10777;50.828;3.264;2022-07-29T10:17:45;25.50;99.90
21238;DHT22;10777;50.828;3.264;2022-07-29T10:20:10;25.40;99.90
21238;DHT22;10777;50.828;3.264;2022-07-29T10:22:37;25.40;99.90
21238;DHT22;10777;50.828;3.264;2022-07-29T10:25:03;25.60;99.90
21238;DHT22;10777;50.828;3.264;2022-07-29T10:27:28;25.70;99.90
21238;DHT22;10777;50.828;3.264;2022-07-29T10:29:54;25.90;99.90
21238;DHT22;10777;50.828;3.264;2022-07-29T10:35:39;26.00;99.90
21238;DHT22;10777;50.828;3.264;2022-07-29T10:38:34;26.20;99.90
21238;DHT22;10777;50.828;3.264;2022-07-29T10:41:23;26.00;99.90
21238;DHT22;10777;50.828;3.264;2022-07-29T10:44:02;25.90;99.90
21238;DHT22;10777;50.828;3.264;2022-07-29T10:46:35;26.20;99.90
21238;DHT22;10777;50.828;3.264;2022-07-29T10:49:22;26.30;99.90
21238;DHT22;10777;50.828;3.264;2022-07-29T10:51:53;26.50;99.90
21238;DHT22;10777;50.828;3.264;2022-07-29T10:54:41;26.20;99.90
21238;DHT22;10777;50.828;3.264;2022-07-29T10:57:25;26.40;99.90
21238;DHT22;10777;50.828;3.264;2022-07-29T11:00:30;26.40;99.90
21238;DHT22;10777;50.828;3.264;2022-07-29T11:02:56;26.60;99.90
21238;DHT22;10777;50.828;3.264;2022-07-29T11:05:23;26.50;99.90
21238;DHT22;10777;50.828;3.264;2022-07-29T11:08:18;26.60;99.90
21238;DHT22;10777;50.828;3.264;2022-07-29T11:10:48;26.70;99.90
21238;DHT22;10777;50.828;3.264;2022-07-29T11:13:50;27.00;99.90
21238;DHT22;10777;50.828;3.264;2022-07-29T11:16:17;26.80;99.90
21238;DHT22;10777;50.828;3.264;2022-07-29T11:21:49;26.80;99.90
21238;DHT22;10777;50.828;3.264;2022-07-29T11:24:26;26.60;99.90
21238;DHT22;10777;50.828;3.264;2022-07-29T11:27:18;26.90;99.90
21238;DHT22;10777;50.828;3.264;2022-07-29T11:29:56;27.20;99.70
21238;DHT22;10777;50.828;3.264;2022-07-29T11:32:24;27.10;99.90
21238;DHT22;10777;50.828;3.264;2022-07-29T11:35:25;26.90;99.90
21238;DHT22;10777;50.828;3.264;2022-07-29T11:38:26;26.20;99.90
21238;DHT22;10777;50.828;3.264;2022-07-29T11:41:20;26.80;99.90
21238;DHT22;10777;50.828;3.264;2022-07-29T11:43:53;27.10;99.60
21238;DHT22;10777;50.828;3.264;2022-07-29T11:46:54;27.70;98.60
21238;DHT22;10777;50.828;3.264;2022-07-29T11:49:21;28.30;97.80
21238;DHT22;10777;50.828;3.264;2022-07-29T11:51:52;28.50;97.60
21238;DHT22;10777;50.828;3.264;2022-07-29T11:54:25;28.20;97.20
21238;DHT22;10777;50.828;3.264;2022-07-29T11:56:52;27.70;97.80
21238;DHT22;10777;50.828;3.264;2022-07-29T11:59:19;27.60;97.90
21238;DHT22;10777;50.828;3.264;2022-07-29T12:01:55;27.70;98.20
21238;DHT22;10777;50.828;3.264;2022-07-29T12:04:21;27.80;97.80
21238;DHT22;10777;50.828;3.264;2022-07-29T12:06:50;28.20;97.60
21238;DHT22;10777;50.828;3.264;2022-07-29T12:09:17;28.20;97.00
21238;DHT22;10777;50.828;3.264;2022-07-29T12:11:43;28.10;97.00
21238;DHT22;10777;50.828;3.264;2022-07-29T12:14:09;28.00;97.20
21238;DHT22;10777;50.828;3.264;2022-07-29T12:16:35;27.80;97.30
21238;DHT22;10777;50.828;3.264;2022-07-29T12:19:02;28.30;97.20
21238;DHT22;10777;50.828;3.264;2022-07-29T12:21:35;28.50;96.50
21238;DHT22;10777;50.828;3.264;2022-07-29T12:24:08;28.90;96.00
21238;DHT22;10777;50.828;3.264;2022-07-29T12:26:34;29.00;95.40
21238;DHT22;10777;50.828;3.264;2022-07-29T12:29:00;29.10;94.40
21238;DHT22;10777;50.828;3.264;2022-07-29T12:31:26;29.30;94.30
21238;DHT22;10777;50.828;3.264;2022-07-29T12:33:53;29.30;94.90
21238;DHT22;10777;50.828;3.264;2022-07-29T12:36:19;29.00;95.60
21238;DHT22;10777;50.828;3.264;2022-07-29T12:38:45;29.30;95.40
21238;DHT22;10777;50.828;3.264;2022-07-29T12:41:11;29.20;95.20
21238;DHT22;10777;50.828;3.264;2022-07-29T12:43:37;29.00;95.10
21238;DHT22;10777;50.828;3.264;2022-07-29T12:46:13;28.70;95.00
21238;DHT22;10777;50.828;3.264;2022-07-29T12:48:41;28.70;95.30
21238;DHT22;10777;50.828;3.264;2022-07-29T12:51:07;28.70;95.20
21238;DHT22;10777;50.828;3.264;2022-07-29T12:53:35;28.90;94.80
21238;DHT22;10777;50.828;3.264;2022-07-29T12:56:01;29.00;94.60
21238;DHT22;10777;50.828;3.264;2022-07-29T12:58:31;29.10;94.00
21238;DHT22;10777;50.828;3.264;2022-07-29T13:01:03;29.20;94.30
21238;DHT22;10777;50.828;3.264;2022-07-29T13:03:40;29.10;94.60
21238;DHT22;10777;50.828;3.264;2022-07-29T13:06:06;28.90;94.60
21238;DHT22;10777;50.828;3.264;2022-07-29T13:08:32;28.70;95.20
21238;DHT22;10777;50.828;3.264;2022-07-29T13:10:58;28.70;95.20
21238;DHT22;10777;50.828;3.264;2022-07-29T13:13:23;28.80;95.10
21238;DHT22;10777;50.828;3.264;2022-07-29T13:16:06;28.90;95.10
21238;DHT22;10777;50.828;3.264;2022-07-29T13:18:34;28.90;94.80
21238;DHT22;10777;50.828;3.264;2022-07-29T13:21:12;28.70;94.80
21238;DHT22;10777;50.828;3.264;2022-07-29T13:23:38;28.50;95.00
21238;DHT22;10777;50.828;3.264;2022-07-29T13:26:09;28.60;95.10
21238;DHT22;10777;50.828;3.264;2022-07-29T13:28:35;28.60;95.30
21238;DHT22;10777;50.828;3.264;2022-07-29T13:31:01;28.50;95.20
21238;DHT22;10777;50.828;3.264;2022-07-29T13:33:27;28.40;95.80
21238;DHT22;10777;50.828;3.264;2022-07-29T13:35:52;28.40;95.80
21238;DHT22;10777;50.828;3.264;2022-07-29T13:38:18;28.50;95.90
21238;DHT22;10777;50.828;3.264;2022-07-29T13:40:44;28.50;95.80
21238;DHT22;10777;50.828;3.264;2022-07-29T13:43:11;28.30;95.80
21238;DHT22;10777;50.828;3.264;2022-07-29T13:45:37;28.00;96.30
21238;DHT22;10777;50.828;3.264;2022-07-29T13:48:03;28.10;96.10
21238;DHT22;10777;50.828;3.264;2022-07-29T13:50:31;27.80;96.40
21238;DHT22;10777;50.828;3.264;2022-07-29T13:52:58;28.30;96.20
21238;DHT22;10777;50.828;3.264;2022-07-29T13:55:23;29.50;95.40
21238;DHT22;10777;50.828;3.264;2022-07-29T13:57:49;30.70;93.70
21238;DHT22;10777;50.828;3.264;2022-07-29T14:00:15;31.70;93.10
21238;DHT22;10777;50.828;3.264;2022-07-29T14:02:42;33.10;92.00
21238;DHT22;10777;50.828;3.264;2022-07-29T14:05:08;34.40;90.00
21238;DHT22;10777;50.828;3.264;2022-07-29T14:07:36;35.40;84.50
21238;DHT22;10777;50.828;3.264;2022-07-29T14:10:04;35.60;81.20
21238;DHT22;10777;50.828;3.264;2022-07-29T14:12:30;36.90;79.10
21238;DHT22;10777;50.828;3.264;2022-07-29T14:14:56;36.60;75.10
21238;DHT22;10777;50.828;3.264;2022-07-29T14:17:22;34.70;78.00
21238;DHT22;10777;50.828;3.264;2022-07-29T14:19:48;34.90;77.10
21238;DHT22;10777;50.828;3.264;2022-07-29T14:22:14;35.10;75.10
21238;DHT22;10777;50.828;3.264;2022-07-29T14:24:39;35.50;73.80
21238;DHT22;10777;50.828;3.264;2022-07-29T14:27:07;36.00;73.50
21238;DHT22;10777;50.828;3.264;2022-07-29T14:29:33;36.10;72.20
21238;DHT22;10777;50.828;3.264;2022-07-29T14:31:59;36.20;70.40
21238;DHT22;10777;50.828;3.264;2022-07-29T14:34:25;36.80;71.10
21238;DHT22;10777;50.828;3.264;2022-07-29T14:36:50;37.70;69.40
21238;DHT22;10777;50.828;3.264;2022-07-29T14:39:16;38.90;66.80
21238;DHT22;10777;50.828;3.264;2022-07-29T14:41:42;38.60;64.40
21238;DHT22;10777;50.828;3.264;2022-07-29T14:44:08;38.80;63.30
21238;DHT22;10777;50.828;3.264;2022-07-29T14:46:34;38.00;63.10
21238;DHT22;10777;50.828;3.264;2022-07-29T14:49:00;35.30;66.70
21238;DHT22;10777;50.828;3.264;2022-07-29T14:51:26;34.00;69.60
21238;DHT22;10777;50.828;3.264;2022-07-29T14:53:52;33.30;70.80
21238;DHT22;10777;50.828;3.264;2022-07-29T14:56:18;33.00;72.50
21238;DHT22;10777;50.828;3.264;2022-07-29T14:58:44;33.40;72.20
21238;DHT22;10777;50.828;3.264;2022-07-29T15:01:09;34.00;71.20
21238;DHT22;10777;50.828;3.264;2022-07-29T15:03:35;33.50;71.30
21238;DHT22;10777;50.828;3.264;2022-07-29T15:06:01;32.40;73.00
21238;DHT22;10777;50.828;3.264;2022-07-29T15:08:26;32.10;73.20
21238;DHT22;10777;50.828;3.264;2022-07-29T15:10:55;32.70;73.70
21238;DHT22;10777;50.828;3.264;2022-07-29T15:13:22;34.10;72.00
21238;DHT22;10777;50.828;3.264;2022-07-29T15:15:48;35.80;68.50
21238;DHT22;10777;50.828;3.264;2022-07-29T15:18:15;36.30;67.50
21238;DHT22;10777;50.828;3.264;2022-07-29T15:20:40;36.00;65.40
21238;DHT22;10777;50.828;3.264;2022-07-29T15:23:06;35.10;67.70
21238;DHT22;10777;50.828;3.264;2022-07-29T15:25:34;33.70;68.40
21238;DHT22;10777;50.828;3.264;2022-07-29T15:28:02;33.10;70.00
21238;DHT22;10777;50.828;3.264;2022-07-29T15:30:30;33.50;69.70
21238;DHT22;10777;50.828;3.264;2022-07-29T15:32:56;34.80;67.70
21238;DHT22;10777;50.828;3.264;2022-07-29T15:35:22;35.00;67.40
21238;DHT22;10777;50.828;3.264;2022-07-29T15:37:47;35.00;66.50
21238;DHT22;10777;50.828;3.264;2022-07-29T15:40:13;34.10;68.50
21238;DHT22;10777;50.828;3.264;2022-07-29T15:42:39;35.00;68.80
21238;DHT22;10777;50.828;3.264;2022-07-29T15:45:05;35.80;66.90
21238;DHT22;10777;50.828;3.264;2022-07-29T15:47:31;35.30;67.00
21238;DHT22;10777;50.828;3.264;2022-07-29T15:49:56;35.40;66.70